sensor_id;sensor_type;location;lat;lon;timestamp;P1;durP1;ratioP1;P2;durP2;ratioP2
20229;SDS011;12195;55.790;37.572;2024-01-30T00:01:56;7.00;;;3.90;;
20229;SDS011;12195;55.790;37.572;2024-01-30T00:04:29;6.22;;;4.50;;
20229;SDS011;12195;55.790;37.572;2024-01-30T00:07:02;7.28;;;4.60;;
20229;SDS011;12195;55.790;37.572;2024-01-30T00:09:34;3.58;;;2.17;;
20229;SDS011;12195;55.790;37.572;2024-01-30T00:12:07;4.90;;;2.98;;
20229;SDS011;12195;55.790;37.572;2024-01-30T00:14:41;4.65;;;2.77;;
20229;SDS011;12195;55.790;37.572;2024-01-30T00:17:16;3.92;;;2.50;;
20229;SDS011;12195;55.790;37.572;2024-01-30T00:22:25;4.20;;;3.20;;
20229;SDS011;12195;55.790;37.572;2024-01-30T00:25:00;8.00;;;4.10;;
20229;SDS011;12195;55.790;37.572;2024-01-30T00:27:32;6.42;;;4.20;;
20229;SDS011;12195;55.790;37.572;2024-01-30T00:30:05;6.55;;;3.80;;
20229;SDS011;12195;55.790;37.572;2024-01-30T00:32:38;7.03;;;4.20;;
20229;SDS011;12195;55.790;37.572;2024-01-30T00:35:11;3.17;;;2.25;;
20229;SDS011;12195;55.790;37.572;2024-01-30T00:37:44;3.10;;;1.82;;
20229;SDS011;12195;55.790;37.572;2024-01-30T00:40:16;6.55;;;4.60;;
20229;SDS011;12195;55.790;37.572;2024-01-30T00:42:49;7.35;;;4.53;;
20229;SDS011;12195;55.790;37.572;2024-01-30T00:45:22;6.17;;;4.10;;
20229;SDS011;12195;55.790;37.572;2024-01-30T00:47:54;6.45;;;4.35;;
20229;SDS011;12195;55.790;37.572;2024-01-30T00:50:27;5.03;;;3.20;;
20229;SDS011;12195;55.790;37.572;2024-01-30T00:52:59;6.95;;;3.37;;
20229;SDS011;12195;55.790;37.572;2024-01-30T00:55:32;6.20;;;3.52;;
20229;SDS011;12195;55.790;37.572;2024-01-30T00:58:05;8.10;;;4.20;;
20229;SDS011;12195;55.790;37.572;2024-01-30T01:00:38;7.40;;;4.03;;
20229;SDS011;12195;55.790;37.572;2024-01-30T01:03:11;5.60;;;3.45;;
20229;SDS011;12195;55.790;37.572;2024-01-30T01:05:44;5.25;;;3.55;;
20229;SDS011;12195;55.790;37.572;2024-01-30T01:08:17;5.28;;;3.62;;
20229;SDS011;12195;55.790;37.572;2024-01-30T01:10:51;6.40;;;3.50;;
20229;SDS011;12195;55.790;37.572;2024-01-30T01:13:23;4.20;;;2.37;;
20229;SDS011;12195;55.790;37.572;2024-01-30T01:15:56;5.42;;;4.03;;
20229;SDS011;12195;55.790;37.572;2024-01-30T01:18:28;4.90;;;2.45;;
20229;SDS011;12195;55.790;37.572;2024-01-30T01:21:01;6.87;;;4.62;;
20229;SDS011;12195;55.790;37.572;2024-01-30T01:23:34;5.60;;;3.92;;
20229;SDS011;12195;55.790;37.572;2024-01-30T01:26:07;5.83;;;4.37;;
20229;SDS011;12195;55.790;37.572;2024-01-30T01:28:40;6.58;;;3.92;;
20229;SDS011;12195;55.790;37.572;2024-01-30T01:31:13;6.05;;;3.98;;
20229;SDS011;12195;55.790;37.572;2024-01-30T01:33:46;5.90;;;3.92;;
20229;SDS011;12195;55.790;37.572;2024-01-30T01:36:18;6.40;;;4.30;;
20229;SDS011;12195;55.790;37.572;2024-01-30T01:38:51;7.33;;;4.47;;
20229;SDS011;12195;55.790;37.572;2024-01-30T01:41:23;5.33;;;3.27;;
20229;SDS011;12195;55.790;37.572;2024-01-30T01:43:56;7.95;;;4.50;;
20229;SDS011;12195;55.790;37.572;2024-01-30T01:46:30;4.78;;;3.40;;
20229;SDS011;12195;55.790;37.572;2024-01-30T01:49:04;7.10;;;3.45;;
20229;SDS011;12195;55.790;37.572;2024-01-30T01:51:38;6.87;;;4.65;;
20229;SDS011;12195;55.790;37.572;2024-01-30T01:54:12;7.45;;;4.33;;
20229;SDS011;12195;55.790;37.572;2024-01-30T01:59:18;6.55;;;4.37;;
20229;SDS011;12195;55.790;37.572;2024-01-30T02:01:52;6.37;;;4.85;;
20229;SDS011;12195;55.790;37.572;2024-01-30T02:04:27;4.90;;;2.80;;
20229;SDS011;12195;55.790;37.572;2024-01-30T02:06:59;7.05;;;4.53;;
20229;SDS011;12195;55.790;37.572;2024-01-30T02:09:32;6.53;;;4.10;;
20229;SDS011;12195;55.790;37.572;2024-01-30T02:12:05;3.70;;;2.95;;
20229;SDS011;12195;55.790;37.572;2024-01-30T02:14:50;4.62;;;2.52;;
20229;SDS011;12195;55.790;37.572;2024-01-30T02:17:21;6.62;;;4.35;;
20229;SDS011;12195;55.790;37.572;2024-01-30T02:19:55;5.90;;;4.22;;
20229;SDS011;12195;55.790;37.572;2024-01-30T02:22:28;9.43;;;5.08;;
20229;SDS011;12195;55.790;37.572;2024-01-30T02:25:01;20.35;;;5.72;;
20229;SDS011;12195;55.790;37.572;2024-01-30T02:27:34;5.33;;;3.87;;
20229;SDS011;12195;55.790;37.572;2024-01-30T02:30:07;7.97;;;4.80;;
20229;SDS011;12195;55.790;37.572;2024-01-30T02:32:40;6.53;;;4.83;;
20229;SDS011;12195;55.790;37.572;2024-01-30T02:35:13;5.17;;;3.33;;
20229;SDS011;12195;55.790;37.572;2024-01-30T02:37:46;5.30;;;3.45;;
20229;SDS011;12195;55.790;37.572;2024-01-30T02:40:19;7.72;;;4.25;;
20229;SDS011;12195;55.790;37.572;2024-01-30T02:42:52;5.63;;;3.90;;
20229;SDS011;12195;55.790;37.572;2024-01-30T02:45:25;7.78;;;4.40;;
20229;SDS011;12195;55.790;37.572;2024-01-30T02:47:57;3.08;;;2.22;;
20229;SDS011;12195;55.790;37.572;2024-01-30T02:50:30;8.30;;;3.30;;
20229;SDS011;12195;55.790;37.572;2024-01-30T02:53:03;8.75;;;4.53;;
20229;SDS011;12195;55.790;37.572;2024-01-30T02:55:36;10.48;;;4.47;;
20229;SDS011;12195;55.790;37.572;2024-01-30T02:58:09;6.42;;;3.60;;
20229;SDS011;12195;55.790;37.572;2024-01-30T03:00:41;8.08;;;4.45;;
20229;SDS011;12195;55.790;37.572;2024-01-30T03:03:14;6.15;;;4.10;;
20229;SDS011;12195;55.790;37.572;2024-01-30T03:05:47;6.72;;;3.70;;
20229;SDS011;12195;55.790;37.572;2024-01-30T03:08:20;5.90;;;4.28;;
20229;SDS011;12195;55.790;37.572;2024-01-30T03:10:53;8.38;;;4.30;;
20229;SDS011;12195;55.790;37.572;2024-01-30T03:13:25;4.05;;;2.72;;
20229;SDS011;12195;55.790;37.572;2024-01-30T03:15:59;8.17;;;4.87;;
20229;SDS011;12195;55.790;37.572;2024-01-30T03:18:32;7.87;;;5.28;;
20229;SDS011;12195;55.790;37.572;2024-01-30T03:21:05;6.12;;;3.47;;
20229;SDS011;12195;55.790;37.572;2024-01-30T03:23:37;4.95;;;3.40;;
20229;SDS011;12195;55.790;37.572;2024-01-30T03:26:10;6.92;;;4.80;;
20229;SDS011;12195;55.790;37.572;2024-01-30T03:28:43;6.67;;;4.12;;
20229;SDS011;12195;55.790;37.572;2024-01-30T03:31:17;12.05;;;7.37;;
20229;SDS011;12195;55.790;37.572;2024-01-30T03:33:50;7.17;;;5.12;;
20229;SDS011;12195;55.790;37.572;2024-01-30T03:36:23;6.08;;;4.20;;
20229;SDS011;12195;55.790;37.572;2024-01-30T03:38:57;4.85;;;3.83;;
20229;SDS011;12195;55.790;37.572;2024-01-30T03:41:30;6.65;;;4.60;;
20229;SDS011;12195;55.790;37.572;2024-01-30T03:44:03;9.20;;;5.58;;
20229;SDS011;12195;55.790;37.572;2024-01-30T03:46:36;10.20;;;5.00;;
20229;SDS011;12195;55.790;37.572;2024-01-30T03:49:09;12.20;;;5.10;;
20229;SDS011;12195;55.790;37.572;2024-01-30T03:51:42;8.38;;;4.50;;
20229;SDS011;12195;55.790;37.572;2024-01-30T03:54:15;6.75;;;4.70;;
20229;SDS011;12195;55.790;37.572;2024-01-30T03:56:48;3.52;;;2.47;;
20229;SDS011;12195;55.790;37.572;2024-01-30T03:59:25;7.80;;;3.42;;
20229;SDS011;12195;55.790;37.572;2024-01-30T04:01:59;6.17;;;4.45;;
20229;SDS011;12195;55.790;37.572;2024-01-30T04:07:04;6.58;;;4.35;;
20229;SDS011;12195;55.790;37.572;2024-01-30T04:09:38;5.78;;;4.03;;
20229;SDS011;12195;55.790;37.572;2024-01-30T04:12:11;8.23;;;4.50;;
20229;SDS011;12195;55.790;37.572;2024-01-30T04:14:44;7.75;;;4.85;;
20229;SDS011;12195;55.790;37.572;2024-01-30T04:17:16;7.25;;;4.47;;
20229;SDS011;12195;55.790;37.572;2024-01-30T04:22:24;6.72;;;4.50;;
20229;SDS011;12195;55.790;37.572;2024-01-30T04:24:58;7.25;;;4.40;;
20229;SDS011;12195;55.790;37.572;2024-01-30T04:27:32;8.20;;;4.85;;
20229;SDS011;12195;55.790;37.572;2024-01-30T04:30:06;9.10;;;4.75;;
20229;SDS011;12195;55.790;37.572;2024-01-30T04:32:39;9.85;;;4.53;;
20229;SDS011;12195;55.790;37.572;2024-01-30T04:35:13;6.85;;;4.50;;
20229;SDS011;12195;55.790;37.572;2024-01-30T04:37:46;7.37;;;4.25;;
20229;SDS011;12195;55.790;37.572;2024-01-30T04:40:19;6.47;;;4.42;;
20229;SDS011;12195;55.790;37.572;2024-01-30T04:42:53;7.20;;;4.55;;
20229;SDS011;12195;55.790;37.572;2024-01-30T04:45:26;7.00;;;4.87;;
20229;SDS011;12195;55.790;37.572;2024-01-30T04:47:59;6.47;;;3.62;;
20229;SDS011;12195;55.790;37.572;2024-01-30T04:50:32;6.08;;;3.35;;
20229;SDS011;12195;55.790;37.572;2024-01-30T04:53:06;6.65;;;3.33;;
20229;SDS011;12195;55.790;37.572;2024-01-30T04:55:40;7.70;;;5.05;;
20229;SDS011;12195;55.790;37.572;2024-01-30T04:58:14;6.33;;;3.72;;
20229;SDS011;12195;55.790;37.572;2024-01-30T05:00:48;3.47;;;3.17;;
20229;SDS011;12195;55.790;37.572;2024-01-30T05:03:23;6.33;;;3.87;;
20229;SDS011;12195;55.790;37.572;2024-01-30T05:05:58;9.83;;;5.00;;
20229;SDS011;12195;55.790;37.572;2024-01-30T05:08:31;5.73;;;4.00;;
20229;SDS011;12195;55.790;37.572;2024-01-30T05:11:07;8.75;;;4.70;;
20229;SDS011;12195;55.790;37.572;2024-01-30T05:13:42;5.05;;;3.22;;
20229;SDS011;12195;55.790;37.572;2024-01-30T05:16:15;7.77;;;3.23;;
20229;SDS011;12195;55.790;37.572;2024-01-30T05:21:22;7.10;;;4.35;;
20229;SDS011;12195;55.790;37.572;2024-01-30T05:23:56;7.17;;;3.70;;
20229;SDS011;12195;55.790;37.572;2024-01-30T05:26:29;10.90;;;4.95;;
20229;SDS011;12195;55.790;37.572;2024-01-30T05:29:03;10.20;;;5.50;;
20229;SDS011;12195;55.790;37.572;2024-01-30T05:31:37;11.88;;;5.62;;
20229;SDS011;12195;55.790;37.572;2024-01-30T05:34:10;8.25;;;5.40;;
20229;SDS011;12195;55.790;37.572;2024-01-30T05:36:44;10.20;;;5.40;;
20229;SDS011;12195;55.790;37.572;2024-01-30T05:39:17;8.77;;;3.30;;
20229;SDS011;12195;55.790;37.572;2024-01-30T05:41:50;9.10;;;5.10;;
20229;SDS011;12195;55.790;37.572;2024-01-30T05:44:23;9.13;;;5.60;;
20229;SDS011;12195;55.790;37.572;2024-01-30T05:46:56;11.33;;;5.13;;
20229;SDS011;12195;55.790;37.572;2024-01-30T05:49:31;6.97;;;3.72;;
20229;SDS011;12195;55.790;37.572;2024-01-30T05:52:04;17.80;;;6.25;;
20229;SDS011;12195;55.790;37.572;2024-01-30T05:54:37;9.20;;;4.90;;
20229;SDS011;12195;55.790;37.572;2024-01-30T05:57:10;12.37;;;5.40;;
20229;SDS011;12195;55.790;37.572;2024-01-30T05:59:44;10.38;;;4.55;;
20229;SDS011;12195;55.790;37.572;2024-01-30T06:02:19;9.58;;;5.85;;
20229;SDS011;12195;55.790;37.572;2024-01-30T06:04:52;13.15;;;6.10;;
20229;SDS011;12195;55.790;37.572;2024-01-30T06:07:25;8.20;;;4.63;;
20229;SDS011;12195;55.790;37.572;2024-01-30T06:09:59;9.73;;;5.67;;
20229;SDS011;12195;55.790;37.572;2024-01-30T06:12:33;13.48;;;5.55;;
20229;SDS011;12195;55.790;37.572;2024-01-30T06:15:07;6.03;;;4.33;;
20229;SDS011;12195;55.790;37.572;2024-01-30T06:17:41;10.23;;;6.22;;
20229;SDS011;12195;55.790;37.572;2024-01-30T06:20:15;9.58;;;5.70;;
20229;SDS011;12195;55.790;37.572;2024-01-30T06:22:49;7.15;;;4.42;;
20229;SDS011;12195;55.790;37.572;2024-01-30T06:25:22;13.55;;;5.90;;
20229;SDS011;12195;55.790;37.572;2024-01-30T06:27:55;9.97;;;5.30;;
20229;SDS011;12195;55.790;37.572;2024-01-30T06:30:29;3.75;;;2.67;;
20229;SDS011;12195;55.790;37.572;2024-01-30T06:33:02;13.10;;;5.78;;
20229;SDS011;12195;55.790;37.572;2024-01-30T06:35:36;10.00;;;5.78;;
20229;SDS011;12195;55.790;37.572;2024-01-30T06:38:13;10.23;;;5.80;;
20229;SDS011;12195;55.790;37.572;2024-01-30T06:40:47;8.23;;;4.78;;
20229;SDS011;12195;55.790;37.572;2024-01-30T06:43:19;7.35;;;3.87;;
20229;SDS011;12195;55.790;37.572;2024-01-30T06:48:26;13.80;;;6.15;;
20229;SDS011;12195;55.790;37.572;2024-01-30T06:50:59;8.28;;;5.78;;
20229;SDS011;12195;55.790;37.572;2024-01-30T06:53:34;10.90;;;4.45;;
20229;SDS011;12195;55.790;37.572;2024-01-30T06:56:07;11.57;;;7.17;;
20229;SDS011;12195;55.790;37.572;2024-01-30T06:58:42;13.93;;;6.62;;
20229;SDS011;12195;55.790;37.572;2024-01-30T07:01:15;8.63;;;5.35;;
20229;SDS011;12195;55.790;37.572;2024-01-30T07:03:49;10.08;;;5.92;;
20229;SDS011;12195;55.790;37.572;2024-01-30T07:06:22;13.77;;;5.57;;
20229;SDS011;12195;55.790;37.572;2024-01-30T07:08:55;10.32;;;6.22;;
20229;SDS011;12195;55.790;37.572;2024-01-30T07:11:28;10.55;;;5.87;;
20229;SDS011;12195;55.790;37.572;2024-01-30T07:14:01;13.83;;;6.85;;
20229;SDS011;12195;55.790;37.572;2024-01-30T07:16:38;13.25;;;6.40;;
20229;SDS011;12195;55.790;37.572;2024-01-30T07:19:11;18.20;;;6.70;;
20229;SDS011;12195;55.790;37.572;2024-01-30T07:21:44;9.70;;;5.75;;
20229;SDS011;12195;55.790;37.572;2024-01-30T07:24:17;11.03;;;6.37;;
20229;SDS011;12195;55.790;37.572;2024-01-30T07:26:52;9.83;;;6.05;;
20229;SDS011;12195;55.790;37.572;2024-01-30T07:31:58;17.32;;;6.35;;
20229;SDS011;12195;55.790;37.572;2024-01-30T07:34:32;12.88;;;5.90;;
20229;SDS011;12195;55.790;37.572;2024-01-30T07:37:07;11.20;;;5.67;;
20229;SDS011;12195;55.790;37.572;2024-01-30T07:39:40;12.13;;;6.70;;
20229;SDS011;12195;55.790;37.572;2024-01-30T07:42:13;13.67;;;6.60;;
20229;SDS011;12195;55.790;37.572;2024-01-30T07:44:48;11.73;;;4.83;;
20229;SDS011;12195;55.790;37.572;2024-01-30T07:47:23;9.90;;;6.30;;
20229;SDS011;12195;55.790;37.572;2024-01-30T07:49:57;16.20;;;6.62;;
20229;SDS011;12195;55.790;37.572;2024-01-30T07:52:30;7.25;;;3.65;;
20229;SDS011;12195;55.790;37.572;2024-01-30T07:55:05;14.03;;;6.45;;
20229;SDS011;12195;55.790;37.572;2024-01-30T07:57:39;12.85;;;5.92;;
20229;SDS011;12195;55.790;37.572;2024-01-30T08:00:14;11.08;;;5.70;;
20229;SDS011;12195;55.790;37.572;2024-01-30T08:02:53;9.28;;;5.05;;
20229;SDS011;12195;55.790;37.572;2024-01-30T08:05:28;13.72;;;6.33;;
20229;SDS011;12195;55.790;37.572;2024-01-30T08:08:01;12.78;;;7.00;;
20229;SDS011;12195;55.790;37.572;2024-01-30T08:10:36;13.40;;;6.50;;
20229;SDS011;12195;55.790;37.572;2024-01-30T08:15:48;10.90;;;5.85;;
20229;SDS011;12195;55.790;37.572;2024-01-30T08:18:22;9.93;;;3.87;;
20229;SDS011;12195;55.790;37.572;2024-01-30T08:20:55;12.35;;;4.75;;
20229;SDS011;12195;55.790;37.572;2024-01-30T08:23:29;8.33;;;5.70;;
20229;SDS011;12195;55.790;37.572;2024-01-30T08:26:04;10.93;;;6.17;;
20229;SDS011;12195;55.790;37.572;2024-01-30T08:28:37;13.32;;;6.80;;
20229;SDS011;12195;55.790;37.572;2024-01-30T08:31:11;15.95;;;6.30;;
20229;SDS011;12195;55.790;37.572;2024-01-30T08:33:45;13.70;;;6.28;;
20229;SDS011;12195;55.790;37.572;2024-01-30T08:36:18;10.88;;;5.05;;
20229;SDS011;12195;55.790;37.572;2024-01-30T08:38:53;13.85;;;7.08;;
20229;SDS011;12195;55.790;37.572;2024-01-30T08:41:27;31.15;;;8.23;;
20229;SDS011;12195;55.790;37.572;2024-01-30T08:44:01;11.80;;;6.35;;
20229;SDS011;12195;55.790;37.572;2024-01-30T08:46:35;10.40;;;6.78;;
20229;SDS011;12195;55.790;37.572;2024-01-30T08:49:07;10.93;;;6.70;;
20229;SDS011;12195;55.790;37.572;2024-01-30T08:51:41;20.37;;;7.73;;
20229;SDS011;12195;55.790;37.572;2024-01-30T08:54:14;18.07;;;7.25;;
20229;SDS011;12195;55.790;37.572;2024-01-30T08:56:48;9.25;;;5.33;;
20229;SDS011;12195;55.790;37.572;2024-01-30T08:59:23;10.53;;;4.17;;
20229;SDS011;12195;55.790;37.572;2024-01-30T09:01:56;9.43;;;5.55;;
20229;SDS011;12195;55.790;37.572;2024-01-30T09:04:31;8.23;;;3.80;;
20229;SDS011;12195;55.790;37.572;2024-01-30T09:07:04;18.77;;;6.72;;
20229;SDS011;12195;55.790;37.572;2024-01-30T09:09:41;16.42;;;6.20;;
20229;SDS011;12195;55.790;37.572;2024-01-30T09:12:14;12.20;;;6.10;;
20229;SDS011;12195;55.790;37.572;2024-01-30T09:14:49;11.75;;;5.90;;
20229;SDS011;12195;55.790;37.572;2024-01-30T09:17:22;13.53;;;4.20;;
20229;SDS011;12195;55.790;37.572;2024-01-30T09:19:56;10.85;;;5.95;;
20229;SDS011;12195;55.790;37.572;2024-01-30T09:22:29;5.85;;;3.55;;
20229;SDS011;12195;55.790;37.572;2024-01-30T09:25:03;16.07;;;5.97;;
20229;SDS011;12195;55.790;37.572;2024-01-30T09:27:37;14.45;;;6.60;;
20229;SDS011;12195;55.790;37.572;2024-01-30T09:30:10;15.05;;;5.62;;
20229;SDS011;12195;55.790;37.572;2024-01-30T09:32:43;12.23;;;6.62;;
20229;SDS011;12195;55.790;37.572;2024-01-30T09:35:16;6.92;;;3.60;;
20229;SDS011;12195;55.790;37.572;2024-01-30T09:37:50;13.93;;;7.30;;
20229;SDS011;12195;55.790;37.572;2024-01-30T09:42:56;12.65;;;6.60;;
20229;SDS011;12195;55.790;37.572;2024-01-30T09:45:34;14.10;;;6.33;;
20229;SDS011;12195;55.790;37.572;2024-01-30T09:48:08;13.22;;;6.00;;
20229;SDS011;12195;55.790;37.572;2024-01-30T09:50:42;13.72;;;6.92;;
20229;SDS011;12195;55.790;37.572;2024-01-30T09:53:15;16.75;;;4.67;;
20229;SDS011;12195;55.790;37.572;2024-01-30T09:55:49;19.10;;;7.95;;
20229;SDS011;12195;55.790;37.572;2024-01-30T09:58:24;11.33;;;5.50;;
20229;SDS011;12195;55.790;37.572;2024-01-30T10:03:30;8.83;;;5.40;;
20229;SDS011;12195;55.790;37.572;2024-01-30T10:06:04;11.50;;;7.25;;
20229;SDS011;12195;55.790;37.572;2024-01-30T10:08:38;14.95;;;7.97;;
20229;SDS011;12195;55.790;37.572;2024-01-30T10:13:45;35.00;;;18.02;;
20229;SDS011;12195;55.790;37.572;2024-01-30T10:18:52;10.95;;;6.72;;
20229;SDS011;12195;55.790;37.572;2024-01-30T10:21:26;12.90;;;6.05;;
20229;SDS011;12195;55.790;37.572;2024-01-30T10:23:59;12.27;;;6.37;;
20229;SDS011;12195;55.790;37.572;2024-01-30T10:26:32;11.03;;;6.60;;
20229;SDS011;12195;55.790;37.572;2024-01-30T10:29:06;13.93;;;6.80;;
20229;SDS011;12195;55.790;37.572;2024-01-30T10:31:39;15.10;;;7.00;;
20229;SDS011;12195;55.790;37.572;2024-01-30T10:34:14;12.65;;;6.45;;
20229;SDS011;12195;55.790;37.572;2024-01-30T10:36:50;12.75;;;6.83;;
20229;SDS011;12195;55.790;37.572;2024-01-30T10:39:24;11.57;;;6.75;;
20229;SDS011;12195;55.790;37.572;2024-01-30T10:42:01;23.45;;;7.55;;
20229;SDS011;12195;55.790;37.572;2024-01-30T10:44:37;25.88;;;7.28;;
20229;SDS011;12195;55.790;37.572;2024-01-30T10:47:13;18.37;;;7.85;;
20229;SDS011;12195;55.790;37.572;2024-01-30T10:49:50;12.93;;;6.83;;
20229;SDS011;12195;55.790;37.572;2024-01-30T10:52:26;19.48;;;9.18;;
20229;SDS011;12195;55.790;37.572;2024-01-30T10:55:03;13.65;;;6.30;;
20229;SDS011;12195;55.790;37.572;2024-01-30T11:00:13;23.22;;;8.23;;
20229;SDS011;12195;55.790;37.572;2024-01-30T11:02:47;20.17;;;8.80;;
20229;SDS011;12195;55.790;37.572;2024-01-30T11:05:24;9.13;;;4.17;;
20229;SDS011;12195;55.790;37.572;2024-01-30T11:08:10;25.05;;;7.60;;
20229;SDS011;12195;55.790;37.572;2024-01-30T11:10:49;18.25;;;6.30;;
20229;SDS011;12195;55.790;37.572;2024-01-30T11:13:27;11.65;;;6.53;;
20229;SDS011;12195;55.790;37.572;2024-01-30T11:16:03;57.98;;;11.40;;
20229;SDS011;12195;55.790;37.572;2024-01-30T11:18:37;11.83;;;6.60;;
20229;SDS011;12195;55.790;37.572;2024-01-30T11:21:10;14.98;;;7.55;;
20229;SDS011;12195;55.790;37.572;2024-01-30T11:23:45;25.95;;;7.80;;
20229;SDS011;12195;55.790;37.572;2024-01-30T11:26:19;14.43;;;6.87;;
20229;SDS011;12195;55.790;37.572;2024-01-30T11:28:55;13.28;;;6.67;;
20229;SDS011;12195;55.790;37.572;2024-01-30T11:31:29;15.00;;;6.17;;
20229;SDS011;12195;55.790;37.572;2024-01-30T11:34:02;22.25;;;7.65;;
20229;SDS011;12195;55.790;37.572;2024-01-30T11:36:36;13.25;;;6.70;;
20229;SDS011;12195;55.790;37.572;2024-01-30T11:39:10;13.43;;;7.15;;
20229;SDS011;12195;55.790;37.572;2024-01-30T11:41:45;13.50;;;6.42;;
20229;SDS011;12195;55.790;37.572;2024-01-30T11:46:51;18.73;;;6.65;;
20229;SDS011;12195;55.790;37.572;2024-01-30T11:49:25;18.15;;;7.30;;
20229;SDS011;12195;55.790;37.572;2024-01-30T11:51:58;12.55;;;6.20;;
20229;SDS011;12195;55.790;37.572;2024-01-30T11:54:31;17.10;;;6.92;;
20229;SDS011;12195;55.790;37.572;2024-01-30T11:57:04;12.75;;;6.37;;
20229;SDS011;12195;55.790;37.572;2024-01-30T11:59:37;14.63;;;6.80;;
20229;SDS011;12195;55.790;37.572;2024-01-30T12:02:15;17.00;;;7.22;;
20229;SDS011;12195;55.790;37.572;2024-01-30T12:04:46;13.25;;;6.28;;
20229;SDS011;12195;55.790;37.572;2024-01-30T12:07:19;25.92;;;8.63;;
20229;SDS011;12195;55.790;37.572;2024-01-30T12:09:53;10.78;;;6.10;;
20229;SDS011;12195;55.790;37.572;2024-01-30T12:12:26;14.35;;;6.40;;
20229;SDS011;12195;55.790;37.572;2024-01-30T12:14:59;13.68;;;7.62;;
20229;SDS011;12195;55.790;37.572;2024-01-30T12:17:33;13.97;;;6.90;;
20229;SDS011;12195;55.790;37.572;2024-01-30T12:20:07;14.20;;;6.87;;
20229;SDS011;12195;55.790;37.572;2024-01-30T12:22:46;11.48;;;6.95;;
20229;SDS011;12195;55.790;37.572;2024-01-30T12:25:20;15.48;;;7.20;;
20229;SDS011;12195;55.790;37.572;2024-01-30T12:27:53;16.20;;;7.62;;
20229;SDS011;12195;55.790;37.572;2024-01-30T12:30:29;10.30;;;6.78;;
20229;SDS011;12195;55.790;37.572;2024-01-30T12:33:02;13.40;;;7.28;;
20229;SDS011;12195;55.790;37.572;2024-01-30T12:35:37;14.13;;;7.12;;
20229;SDS011;12195;55.790;37.572;2024-01-30T12:38:13;11.93;;;6.40;;
20229;SDS011;12195;55.790;37.572;2024-01-30T12:40:47;18.10;;;7.58;;
20229;SDS011;12195;55.790;37.572;2024-01-30T12:43:21;11.15;;;6.47;;
20229;SDS011;12195;55.790;37.572;2024-01-30T12:45:58;14.83;;;7.85;;
20229;SDS011;12195;55.790;37.572;2024-01-30T12:48:32;11.90;;;7.35;;
20229;SDS011;12195;55.790;37.572;2024-01-30T12:51:05;14.15;;;7.03;;
20229;SDS011;12195;55.790;37.572;2024-01-30T12:53:38;19.25;;;7.85;;
20229;SDS011;12195;55.790;37.572;2024-01-30T12:56:11;11.63;;;6.20;;
20229;SDS011;12195;55.790;37.572;2024-01-30T12:58:45;20.97;;;7.72;;
20229;SDS011;12195;55.790;37.572;2024-01-30T13:01:19;16.05;;;7.58;;
20229;SDS011;12195;55.790;37.572;2024-01-30T13:03:52;17.67;;;7.65;;
20229;SDS011;12195;55.790;37.572;2024-01-30T13:06:26;10.38;;;5.62;;
20229;SDS011;12195;55.790;37.572;2024-01-30T13:08:59;15.32;;;7.60;;
20229;SDS011;12195;55.790;37.572;2024-01-30T13:11:34;15.83;;;7.55;;
20229;SDS011;12195;55.790;37.572;2024-01-30T13:14:07;12.88;;;6.58;;
20229;SDS011;12195;55.790;37.572;2024-01-30T13:16:40;16.27;;;6.67;;
20229;SDS011;12195;55.790;37.572;2024-01-30T13:19:14;17.82;;;7.33;;
20229;SDS011;12195;55.790;37.572;2024-01-30T13:21:47;28.10;;;8.00;;
20229;SDS011;12195;55.790;37.572;2024-01-30T13:24:22;13.62;;;6.45;;
20229;SDS011;12195;55.790;37.572;2024-01-30T13:26:55;21.47;;;7.70;;
20229;SDS011;12195;55.790;37.572;2024-01-30T13:29:29;20.17;;;7.85;;
20229;SDS011;12195;55.790;37.572;2024-01-30T13:32:04;12.88;;;7.12;;
20229;SDS011;12195;55.790;37.572;2024-01-30T13:34:37;14.38;;;6.95;;
20229;SDS011;12195;55.790;37.572;2024-01-30T13:37:11;15.55;;;7.25;;
20229;SDS011;12195;55.790;37.572;2024-01-30T13:39:44;16.10;;;7.63;;
20229;SDS011;12195;55.790;37.572;2024-01-30T13:42:20;15.72;;;7.17;;
20229;SDS011;12195;55.790;37.572;2024-01-30T13:44:54;18.82;;;7.28;;
20229;SDS011;12195;55.790;37.572;2024-01-30T13:47:27;18.30;;;8.55;;
20229;SDS011;12195;55.790;37.572;2024-01-30T13:50:00;13.98;;;7.67;;
20229;SDS011;12195;55.790;37.572;2024-01-30T13:55:08;19.05;;;9.40;;
20229;SDS011;12195;55.790;37.572;2024-01-30T13:57:42;14.30;;;7.40;;
20229;SDS011;12195;55.790;37.572;2024-01-30T14:00:16;15.60;;;7.35;;
20229;SDS011;12195;55.790;37.572;2024-01-30T14:02:50;15.78;;;7.25;;
20229;SDS011;12195;55.790;37.572;2024-01-30T14:05:25;16.05;;;7.50;;
20229;SDS011;12195;55.790;37.572;2024-01-30T14:08:01;16.12;;;7.72;;
20229;SDS011;12195;55.790;37.572;2024-01-30T14:10:34;18.17;;;7.53;;
20229;SDS011;12195;55.790;37.572;2024-01-30T14:13:07;17.45;;;7.78;;
20229;SDS011;12195;55.790;37.572;2024-01-30T14:15:41;15.83;;;7.78;;
20229;SDS011;12195;55.790;37.572;2024-01-30T14:18:14;13.53;;;7.45;;
20229;SDS011;12195;55.790;37.572;2024-01-30T14:20:49;17.70;;;7.87;;
20229;SDS011;12195;55.790;37.572;2024-01-30T14:23:22;15.58;;;7.72;;
20229;SDS011;12195;55.790;37.572;2024-01-30T14:25:56;20.80;;;8.70;;
20229;SDS011;12195;55.790;37.572;2024-01-30T14:28:30;20.50;;;8.20;;
20229;SDS011;12195;55.790;37.572;2024-01-30T14:31:06;11.40;;;6.47;;
20229;SDS011;12195;55.790;37.572;2024-01-30T14:33:40;13.05;;;7.62;;
20229;SDS011;12195;55.790;37.572;2024-01-30T14:36:13;14.95;;;8.18;;
20229;SDS011;12195;55.790;37.572;2024-01-30T14:38:48;13.25;;;7.30;;
20229;SDS011;12195;55.790;37.572;2024-01-30T14:41:20;13.40;;;7.20;;
20229;SDS011;12195;55.790;37.572;2024-01-30T14:43:53;10.53;;;6.03;;
20229;SDS011;12195;55.790;37.572;2024-01-30T14:46:27;12.10;;;6.05;;
20229;SDS011;12195;55.790;37.572;2024-01-30T14:49:00;13.08;;;5.50;;
20229;SDS011;12195;55.790;37.572;2024-01-30T14:51:39;18.70;;;8.60;;
20229;SDS011;12195;55.790;37.572;2024-01-30T14:54:12;12.03;;;8.23;;
20229;SDS011;12195;55.790;37.572;2024-01-30T14:56:47;21.00;;;9.13;;
20229;SDS011;12195;55.790;37.572;2024-01-30T14:59:23;19.55;;;7.87;;
20229;SDS011;12195;55.790;37.572;2024-01-30T15:01:56;20.88;;;9.00;;
20229;SDS011;12195;55.790;37.572;2024-01-30T15:04:30;13.48;;;8.23;;
20229;SDS011;12195;55.790;37.572;2024-01-30T15:09:35;17.52;;;6.97;;
20229;SDS011;12195;55.790;37.572;2024-01-30T15:12:08;18.62;;;8.10;;
20229;SDS011;12195;55.790;37.572;2024-01-30T15:14:42;14.38;;;7.42;;
20229;SDS011;12195;55.790;37.572;2024-01-30T15:17:19;12.82;;;8.10;;
20229;SDS011;12195;55.790;37.572;2024-01-30T15:19:55;13.95;;;7.72;;
20229;SDS011;12195;55.790;37.572;2024-01-30T15:22:31;17.60;;;8.03;;
20229;SDS011;12195;55.790;37.572;2024-01-30T15:25:06;13.03;;;8.83;;
20229;SDS011;12195;55.790;37.572;2024-01-30T15:27:39;16.05;;;8.63;;
20229;SDS011;12195;55.790;37.572;2024-01-30T15:30:13;14.00;;;8.05;;
20229;SDS011;12195;55.790;37.572;2024-01-30T15:35:19;16.02;;;8.45;;
20229;SDS011;12195;55.790;37.572;2024-01-30T15:37:53;18.95;;;8.85;;
20229;SDS011;12195;55.790;37.572;2024-01-30T15:40:27;15.40;;;8.70;;
20229;SDS011;12195;55.790;37.572;2024-01-30T15:43:00;18.07;;;8.55;;
20229;SDS011;12195;55.790;37.572;2024-01-30T15:45:33;16.97;;;9.95;;
20229;SDS011;12195;55.790;37.572;2024-01-30T15:48:07;16.70;;;8.70;;